sensor_id;sensor_type;location;lat;lon;timestamp;temperature;humidity
23160;DHT22;11748;50.844;4.396;2023-08-17T00:01:44;22.30;99.90
23160;DHT22;11748;50.844;4.396;2023-08-17T00:04:10;22.30;99.90
23160;DHT22;11748;50.844;4.396;2023-08-17T00:06:35;22.10;99.90
23160;DHT22;11748;50.844;4.396;2023-08-17T00:09:01;22.10;99.90
23160;DHT22;11748;50.844;4.396;2023-08-17T00:11:29;22.00;99.90
23160;DHT22;11748;50.844;4.396;2023-08-17T00:13:54;21.90;99.90
23160;DHT22;11748;50.844;4.396;2023-08-17T00:16:20;21.70;99.90
23160;DHT22;11748;50.844;4.396;2023-08-17T00:18:46;21.40;99.90
23160;DHT22;11748;50.844;4.396;2023-08-17T00:21:11;21.40;99.90
23160;DHT22;11748;50.844;4.396;2023-08-17T00:23:38;21.40;99.90
23160;DHT22;11748;50.844;4.396;2023-08-17T00:26:03;21.30;99.90
23160;DHT22;11748;50.844;4.396;2023-08-17T00:28:29;21.20;99.90
23160;DHT22;11748;50.844;4.396;2023-08-17T00:30:55;21.10;99.90
23160;DHT22;11748;50.844;4.396;2023-08-17T00:33:21;21.20;99.90
23160;DHT22;11748;50.844;4.396;2023-08-17T00:35:46;21.00;99.90
23160;DHT22;11748;50.844;4.396;2023-08-17T00:38:12;21.00;99.90
23160;DHT22;11748;50.844;4.396;2023-08-17T00:40:38;21.10;99.90
23160;DHT22;11748;50.844;4.396;2023-08-17T00:43:04;20.90;99.90
23160;DHT22;11748;50.844;4.396;2023-08-17T00:45:31;20.90;99.90
23160;DHT22;11748;50.844;4.396;2023-08-17T00:47:57;21.00;99.90
23160;DHT22;11748;50.844;4.396;2023-08-17T00:50:25;21.10;99.90
23160;DHT22;11748;50.844;4.396;2023-08-17T00:52:52;21.20;99.90
23160;DHT22;11748;50.844;4.396;2023-08-17T00:55:19;21.40;99.90
23160;DHT22;11748;50.844;4.396;2023-08-17T00:57:45;21.40;99.90
23160;DHT22;11748;50.844;4.396;2023-08-17T01:00:12;21.40;99.90
23160;DHT22;11748;50.844;4.396;2023-08-17T01:02:40;21.60;99.90
23160;DHT22;11748;50.844;4.396;2023-08-17T01:05:06;21.80;99.90
23160;DHT22;11748;50.844;4.396;2023-08-17T01:07:32;21.80;99.90
23160;DHT22;11748;50.844;4.396;2023-08-17T01:09:58;21.80;99.90
23160;DHT22;11748;50.844;4.396;2023-08-17T01:12:38;21.50;99.90
23160;DHT22;11748;50.844;4.396;2023-08-17T01:15:10;21.50;99.90
23160;DHT22;11748;50.844;4.396;2023-08-17T01:17:53;21.60;99.90
23160;DHT22;11748;50.844;4.396;2023-08-17T01:20:21;21.50;99.90
23160;DHT22;11748;50.844;4.396;2023-08-17T01:22:50;21.30;99.90
23160;DHT22;11748;50.844;4.396;2023-08-17T01:25:17;21.30;99.90
23160;DHT22;11748;50.844;4.396;2023-08-17T01:27:46;21.20;99.90
23160;DHT22;11748;50.844;4.396;2023-08-17T01:30:14;21.00;99.90
23160;DHT22;11748;50.844;4.396;2023-08-17T01:33:06;21.10;99.90
23160;DHT22;11748;50.844;4.396;2023-08-17T01:35:58;21.20;99.90
23160;DHT22;11748;50.844;4.396;2023-08-17T01:38:29;21.10;99.90
23160;DHT22;11748;50.844;4.396;2023-08-17T01:40:57;21.10;99.90
23160;DHT22;11748;50.844;4.396;2023-08-17T01:43:23;21.00;99.90
23160;DHT22;11748;50.844;4.396;2023-08-17T01:45:49;21.10;99.90
23160;DHT22;11748;50.844;4.396;2023-08-17T01:48:15;21.30;99.90
23160;DHT22;11748;50.844;4.396;2023-08-17T01:50:40;21.20;99.90
23160;DHT22;11748;50.844;4.396;2023-08-17T01:53:06;21.10;99.90
23160;DHT22;11748;50.844;4.396;2023-08-17T01:55:34;21.10;99.90
23160;DHT22;11748;50.844;4.396;2023-08-17T01:58:01;21.20;99.90
23160;DHT22;11748;50.844;4.396;2023-08-17T02:00:26;21.30;99.90
23160;DHT22;11748;50.844;4.396;2023-08-17T02:02:52;21.20;99.90
23160;DHT22;11748;50.844;4.396;2023-08-17T02:05:18;21.20;99.90
23160;DHT22;11748;50.844;4.396;2023-08-17T02:07:43;21.10;99.90
23160;DHT22;11748;50.844;4.396;2023-08-17T02:10:09;20.90;99.90
23160;DHT22;11748;50.844;4.396;2023-08-17T02:12:35;20.90;99.90
23160;DHT22;11748;50.844;4.396;2023-08-17T02:15:00;20.90;99.90
23160;DHT22;11748;50.844;4.396;2023-08-17T02:17:26;20.90;99.90
23160;DHT22;11748;50.844;4.396;2023-08-17T02:19:52;20.90;99.90
23160;DHT22;11748;50.844;4.396;2023-08-17T02:22:18;21.00;99.90
23160;DHT22;11748;50.844;4.396;2023-08-17T02:24:49;21.20;99.90
23160;DHT22;11748;50.844;4.396;2023-08-17T02:27:15;21.20;99.90
23160;DHT22;11748;50.844;4.396;2023-08-17T02:29:41;21.10;99.90
23160;DHT22;11748;50.844;4.396;2023-08-17T02:32:07;21.20;99.90
23160;DHT22;11748;50.844;4.396;2023-08-17T02:34:32;21.10;99.90
23160;DHT22;11748;50.844;4.396;2023-08-17T02:36:58;21.00;99.90
23160;DHT22;11748;50.844;4.396;2023-08-17T02:39:24;20.90;99.90
23160;DHT22;11748;50.844;4.396;2023-08-17T02:41:50;20.90;99.90
23160;DHT22;11748;50.844;4.396;2023-08-17T02:44:15;20.90;99.90
23160;DHT22;11748;50.844;4.396;2023-08-17T02:46:41;20.80;99.90
23160;DHT22;11748;50.844;4.396;2023-08-17T02:49:07;20.80;99.90
23160;DHT22;11748;50.844;4.396;2023-08-17T02:51:32;20.90;99.90
23160;DHT22;11748;50.844;4.396;2023-08-17T02:53:58;20.90;99.90
23160;DHT22;11748;50.844;4.396;2023-08-17T02:56:24;20.80;99.90
23160;DHT22;11748;50.844;4.396;2023-08-17T02:58:49;20.90;99.90
23160;DHT22;11748;50.844;4.396;2023-08-17T03:01:15;20.80;99.90
23160;DHT22;11748;50.844;4.396;2023-08-17T03:03:41;20.80;99.90
23160;DHT22;11748;50.844;4.396;2023-08-17T03:06:08;20.80;99.90
23160;DHT22;11748;50.844;4.396;2023-08-17T03:08:33;20.80;99.90
23160;DHT22;11748;50.844;4.396;2023-08-17T03:10:59;20.80;99.90
23160;DHT22;11748;50.844;4.396;2023-08-17T03:13:25;20.90;99.90
23160;DHT22;11748;50.844;4.396;2023-08-17T03:15:50;20.90;99.90
23160;DHT22;11748;50.844;4.396;2023-08-17T03:18:16;20.90;99.90
23160;DHT22;11748;50.844;4.396;2023-08-17T03:20:44;20.80;99.90
23160;DHT22;11748;50.844;4.396;2023-08-17T03:23:11;20.60;99.90
23160;DHT22;11748;50.844;4.396;2023-08-17T03:25:36;20.60;99.90
23160;DHT22;11748;50.844;4.396;2023-08-17T03:28:03;20.60;99.90
23160;DHT22;11748;50.844;4.396;2023-08-17T03:30:29;20.50;99.90
23160;DHT22;11748;50.844;4.396;2023-08-17T03:32:54;20.60;99.90
23160;DHT22;11748;50.844;4.396;2023-08-17T03:35:20;20.70;99.90
23160;DHT22;11748;50.844;4.396;2023-08-17T03:37:47;20.60;99.90
23160;DHT22;11748;50.844;4.396;2023-08-17T03:40:12;20.60;99.90
23160;DHT22;11748;50.844;4.396;2023-08-17T03:42:38;20.50;99.90
23160;DHT22;11748;50.844;4.396;2023-08-17T03:45:04;20.30;99.90
23160;DHT22;11748;50.844;4.396;2023-08-17T03:47:30;20.20;99.90
23160;DHT22;11748;50.844;4.396;2023-08-17T03:49:56;20.40;99.90
23160;DHT22;11748;50.844;4.396;2023-08-17T03:52:22;20.30;99.90
23160;DHT22;11748;50.844;4.396;2023-08-17T03:54:47;20.20;99.90
23160;DHT22;11748;50.844;4.396;2023-08-17T03:57:13;20.20;99.90
23160;DHT22;11748;50.844;4.396;2023-08-17T03:59:39;20.10;99.90
23160;DHT22;11748;50.844;4.396;2023-08-17T04:02:05;20.00;99.90
23160;DHT22;11748;50.844;4.396;2023-08-17T04:04:31;20.10;99.90
23160;DHT22;11748;50.844;4.396;2023-08-17T04:06:57;20.10;99.90
23160;DHT22;11748;50.844;4.396;2023-08-17T04:09:23;20.20;99.90
23160;DHT22;11748;50.844;4.396;2023-08-17T04:11:49;20.10;99.90
23160;DHT22;11748;50.844;4.396;2023-08-17T04:14:15;20.00;99.90
23160;DHT22;11748;50.844;4.396;2023-08-17T04:16:40;19.90;99.90
23160;DHT22;11748;50.844;4.396;2023-08-17T04:19:07;19.80;99.90
23160;DHT22;11748;50.844;4.396;2023-08-17T04:21:33;19.80;99.90
23160;DHT22;11748;50.844;4.396;2023-08-17T04:23:58;19.90;99.90
23160;DHT22;11748;50.844;4.396;2023-08-17T04:26:24;20.00;99.90
23160;DHT22;11748;50.844;4.396;2023-08-17T04:28:50;19.90;99.90
23160;DHT22;11748;50.844;4.396;2023-08-17T04:31:17;20.00;99.90
23160;DHT22;11748;50.844;4.396;2023-08-17T04:33:42;20.00;99.90
23160;DHT22;11748;50.844;4.396;2023-08-17T04:36:08;20.00;99.90
23160;DHT22;11748;50.844;4.396;2023-08-17T04:38:34;19.90;99.90
23160;DHT22;11748;50.844;4.396;2023-08-17T04:40:59;19.90;99.90
23160;DHT22;11748;50.844;4.396;2023-08-17T04:43:25;19.90;99.90
23160;DHT22;11748;50.844;4.396;2023-08-17T04:45:51;19.80;99.90
23160;DHT22;11748;50.844;4.396;2023-08-17T04:48:16;19.70;99.90
23160;DHT22;11748;50.844;4.396;2023-08-17T04:50:42;19.70;99.90
23160;DHT22;11748;50.844;4.396;2023-08-17T04:53:08;19.70;99.90
23160;DHT22;11748;50.844;4.396;2023-08-17T04:55:33;19.80;99.90
23160;DHT22;11748;50.844;4.396;2023-08-17T04:57:59;19.90;99.90
23160;DHT22;11748;50.844;4.396;2023-08-17T05:00:25;19.90;99.90
23160;DHT22;11748;50.844;4.396;2023-08-17T05:02:54;19.70;99.90
23160;DHT22;11748;50.844;4.396;2023-08-17T05:05:20;19.70;99.90
23160;DHT22;11748;50.844;4.396;2023-08-17T05:07:46;19.70;99.90
23160;DHT22;11748;50.844;4.396;2023-08-17T05:10:12;19.90;99.90
23160;DHT22;11748;50.844;4.396;2023-08-17T05:12:38;20.00;99.90
23160;DHT22;11748;50.844;4.396;2023-08-17T05:15:04;20.20;99.90
23160;DHT22;11748;50.844;4.396;2023-08-17T05:17:29;20.30;99.90
23160;DHT22;11748;50.844;4.396;2023-08-17T05:19:55;20.20;99.90
23160;DHT22;11748;50.844;4.396;2023-08-17T05:22:21;20.10;99.90
23160;DHT22;11748;50.844;4.396;2023-08-17T05:24:47;20.10;99.90
23160;DHT22;11748;50.844;4.396;2023-08-17T05:27:13;20.30;99.90
23160;DHT22;11748;50.844;4.396;2023-08-17T05:29:39;20.30;99.90
23160;DHT22;11748;50.844;4.396;2023-08-17T05:32:05;20.30;99.90
23160;DHT22;11748;50.844;4.396;2023-08-17T05:34:31;20.30;99.90
23160;DHT22;11748;50.844;4.396;2023-08-17T05:36:57;20.30;99.90
23160;DHT22;11748;50.844;4.396;2023-08-17T05:39:22;20.30;99.90
23160;DHT22;11748;50.844;4.396;2023-08-17T05:41:48;20.30;99.90
23160;DHT22;11748;50.844;4.396;2023-08-17T05:44:14;20.30;99.90
23160;DHT22;11748;50.844;4.396;2023-08-17T05:46:40;20.30;99.90
23160;DHT22;11748;50.844;4.396;2023-08-17T05:49:06;20.30;99.90
23160;DHT22;11748;50.844;4.396;2023-08-17T05:51:32;20.30;99.90
23160;DHT22;11748;50.844;4.396;2023-08-17T05:53:58;20.30;99.90
23160;DHT22;11748;50.844;4.396;2023-08-17T05:56:24;20.40;99.90
23160;DHT22;11748;50.844;4.396;2023-08-17T05:58:49;20.30;99.90
23160;DHT22;11748;50.844;4.396;2023-08-17T06:01:15;20.30;99.90
23160;DHT22;11748;50.844;4.396;2023-08-17T06:03:41;20.40;99.90
23160;DHT22;11748;50.844;4.396;2023-08-17T06:06:06;20.50;99.90
23160;DHT22;11748;50.844;4.396;2023-08-17T06:08:32;20.50;99.90
23160;DHT22;11748;50.844;4.396;2023-08-17T06:10:58;20.60;99.90
23160;DHT22;11748;50.844;4.396;2023-08-17T06:13:24;20.60;99.90
23160;DHT22;11748;50.844;4.396;2023-08-17T06:15:49;20.50;99.90
23160;DHT22;11748;50.844;4.396;2023-08-17T06:18:15;20.50;99.90
23160;DHT22;11748;50.844;4.396;2023-08-17T06:20:41;20.60;99.90
23160;DHT22;11748;50.844;4.396;2023-08-17T06:23:07;20.60;99.90
23160;DHT22;11748;50.844;4.396;2023-08-17T06:25:33;20.70;99.90
23160;DHT22;11748;50.844;4.396;2023-08-17T06:28:00;20.70;99.90
23160;DHT22;11748;50.844;4.396;2023-08-17T06:30:25;20.70;99.90
23160;DHT22;11748;50.844;4.396;2023-08-17T06:32:51;20.70;99.90
23160;DHT22;11748;50.844;4.396;2023-08-17T06:35:17;20.60;99.90
23160;DHT22;11748;50.844;4.396;2023-08-17T06:37:43;20.60;99.90
23160;DHT22;11748;50.844;4.396;2023-08-17T06:40:09;20.60;99.90
23160;DHT22;11748;50.844;4.396;2023-08-17T06:42:35;20.70;99.90
23160;DHT22;11748;50.844;4.396;2023-08-17T06:45:01;20.70;99.90
23160;DHT22;11748;50.844;4.396;2023-08-17T06:47:26;20.70;99.90
23160;DHT22;11748;50.844;4.396;2023-08-17T06:49:52;20.70;99.90
23160;DHT22;11748;50.844;4.396;2023-08-17T06:52:18;20.60;99.90
23160;DHT22;11748;50.844;4.396;2023-08-17T06:54:43;20.60;99.90
23160;DHT22;11748;50.844;4.396;2023-08-17T06:57:09;20.60;99.90
23160;DHT22;11748;50.844;4.396;2023-08-17T06:59:35;20.60;99.90
23160;DHT22;11748;50.844;4.396;2023-08-17T07:02:00;20.60;99.90
23160;DHT22;11748;50.844;4.396;2023-08-17T07:04:26;20.50;99.90
23160;DHT22;11748;50.844;4.396;2023-08-17T07:06:52;20.70;99.90
23160;DHT22;11748;50.844;4.396;2023-08-17T07:09:18;20.80;99.90
23160;DHT22;11748;50.844;4.396;2023-08-17T07:11:44;20.80;99.90
23160;DHT22;11748;50.844;4.396;2023-08-17T07:14:10;20.80;99.90
23160;DHT22;11748;50.844;4.396;2023-08-17T07:16:37;20.80;99.90
23160;DHT22;11748;50.844;4.396;2023-08-17T07:19:03;20.90;99.90
23160;DHT22;11748;50.844;4.396;2023-08-17T07:21:29;20.90;99.90
23160;DHT22;11748;50.844;4.396;2023-08-17T07:23:56;20.80;99.90
23160;DHT22;11748;50.844;4.396;2023-08-17T07:26:22;20.80;99.90
23160;DHT22;11748;50.844;4.396;2023-08-17T07:28:48;20.90;99.90
23160;DHT22;11748;50.844;4.396;2023-08-17T07:31:15;21.00;99.90
23160;DHT22;11748;50.844;4.396;2023-08-17T07:33:41;21.00;99.90
23160;DHT22;11748;50.844;4.396;2023-08-17T07:36:06;21.00;99.90
23160;DHT22;11748;50.844;4.396;2023-08-17T07:38:32;21.10;99.90
23160;DHT22;11748;50.844;4.396;2023-08-17T07:40:59;21.30;99.90
23160;DHT22;11748;50.844;4.396;2023-08-17T07:43:25;21.40;99.90
23160;DHT22;11748;50.844;4.396;2023-08-17T07:45:57;21.40;99.90
23160;DHT22;11748;50.844;4.396;2023-08-17T07:48:23;21.50;99.90
23160;DHT22;11748;50.844;4.396;2023-08-17T07:50:52;21.60;99.90
23160;DHT22;11748;50.844;4.396;2023-08-17T07:53:19;21.60;99.90
23160;DHT22;11748;50.844;4.396;2023-08-17T07:55:45;21.60;99.90
23160;DHT22;11748;50.844;4.396;2023-08-17T07:58:11;21.70;99.90
23160;DHT22;11748;50.844;4.396;2023-08-17T08:00:37;21.60;99.90
23160;DHT22;11748;50.844;4.396;2023-08-17T08:03:03;21.60;99.90
23160;DHT22;11748;50.844;4.396;2023-08-17T08:05:29;21.70;99.90
23160;DHT22;11748;50.844;4.396;2023-08-17T08:07:55;21.70;99.90
23160;DHT22;11748;50.844;4.396;2023-08-17T08:10:21;21.70;99.90
23160;DHT22;11748;50.844;4.396;2023-08-17T08:12:46;21.60;99.90
23160;DHT22;11748;50.844;4.396;2023-08-17T08:15:12;21.70;99.90
23160;DHT22;11748;50.844;4.396;2023-08-17T08:17:38;21.60;99.90
23160;DHT22;11748;50.844;4.396;2023-08-17T08:20:04;21.40;99.90
23160;DHT22;11748;50.844;4.396;2023-08-17T08:22:30;21.50;99.90
23160;DHT22;11748;50.844;4.396;2023-08-17T08:24:57;21.50;99.90
23160;DHT22;11748;50.844;4.396;2023-08-17T08:27:23;21.50;99.90
23160;DHT22;11748;50.844;4.396;2023-08-17T08:29:49;21.60;99.90
23160;DHT22;11748;50.844;4.396;2023-08-17T08:32:14;21.70;99.90
23160;DHT22;11748;50.844;4.396;2023-08-17T08:34:40;21.80;99.90
23160;DHT22;11748;50.844;4.396;2023-08-17T08:37:07;21.60;99.90
23160;DHT22;11748;50.844;4.396;2023-08-17T08:39:32;21.50;99.90
23160;DHT22;11748;50.844;4.396;2023-08-17T08:42:14;21.60;99.90
23160;DHT22;11748;50.844;4.396;2023-08-17T08:44:39;21.80;99.90
23160;DHT22;11748;50.844;4.396;2023-08-17T08:47:05;22.00;99.90
23160;DHT22;11748;50.844;4.396;2023-08-17T08:49:32;22.00;99.90
23160;DHT22;11748;50.844;4.396;2023-08-17T08:52:01;22.00;99.90
23160;DHT22;11748;50.844;4.396;2023-08-17T08:54:30;21.80;99.90
23160;DHT22;11748;50.844;4.396;2023-08-17T08:57:01;22.00;99.90
23160;DHT22;11748;50.844;4.396;2023-08-17T08:59:27;22.10;99.90
23160;DHT22;11748;50.844;4.396;2023-08-17T09:01:55;22.00;99.90
23160;DHT22;11748;50.844;4.396;2023-08-17T09:04:23;22.20;99.90
23160;DHT22;11748;50.844;4.396;2023-08-17T09:06:50;22.20;99.90
23160;DHT22;11748;50.844;4.396;2023-08-17T09:09:17;22.30;99.90
23160;DHT22;11748;50.844;4.396;2023-08-17T09:11:43;22.10;99.90
23160;DHT22;11748;50.844;4.396;2023-08-17T09:14:09;22.00;99.90
23160;DHT22;11748;50.844;4.396;2023-08-17T09:16:35;22.40;99.90
23160;DHT22;11748;50.844;4.396;2023-08-17T09:19:01;22.90;99.90
23160;DHT22;11748;50.844;4.396;2023-08-17T09:21:31;23.20;99.90
23160;DHT22;11748;50.844;4.396;2023-08-17T09:23:57;23.30;99.90
23160;DHT22;11748;50.844;4.396;2023-08-17T09:26:23;23.30;99.90
23160;DHT22;11748;50.844;4.396;2023-08-17T09:28:52;23.20;99.90
23160;DHT22;11748;50.844;4.396;2023-08-17T09:31:23;23.30;99.90
23160;DHT22;11748;50.844;4.396;2023-08-17T09:33:53;23.50;99.90
23160;DHT22;11748;50.844;4.396;2023-08-17T09:36:23;23.70;99.90
23160;DHT22;11748;50.844;4.396;2023-08-17T09:38:50;23.50;99.90
23160;DHT22;11748;50.844;4.396;2023-08-17T09:41:19;23.50;99.90
23160;DHT22;11748;50.844;4.396;2023-08-17T09:43:46;23.50;99.90
23160;DHT22;11748;50.844;4.396;2023-08-17T09:46:12;23.60;99.90
23160;DHT22;11748;50.844;4.396;2023-08-17T09:48:38;23.60;99.90
23160;DHT22;11748;50.844;4.396;2023-08-17T09:51:06;23.80;99.90
23160;DHT22;11748;50.844;4.396;2023-08-17T09:53:35;23.70;99.90
23160;DHT22;11748;50.844;4.396;2023-08-17T09:56:05;23.90;99.90
23160;DHT22;11748;50.844;4.396;2023-08-17T09:58:39;24.00;99.90
23160;DHT22;11748;50.844;4.396;2023-08-17T10:01:05;24.20;99.90
23160;DHT22;11748;50.844;4.396;2023-08-17T10:03:33;24.30;99.90
23160;DHT22;11748;50.844;4.396;2023-08-17T10:06:06;24.50;99.90
23160;DHT22;11748;50.844;4.396;2023-08-17T10:08:42;24.60;99.90
23160;DHT22;11748;50.844;4.396;2023-08-17T10:11:09;24.70;99.90
23160;DHT22;11748;50.844;4.396;2023-08-17T10:13:39;24.80;99.90
23160;DHT22;11748;50.844;4.396;2023-08-17T10:16:29;25.10;99.90
23160;DHT22;11748;50.844;4.396;2023-08-17T10:21:50;25.00;99.90
23160;DHT22;11748;50.844;4.396;2023-08-17T10:24:19;25.00;99.90
23160;DHT22;11748;50.844;4.396;2023-08-17T10:26:46;24.90;99.90
23160;DHT22;11748;50.844;4.396;2023-08-17T10:29:12;24.60;99.90
23160;DHT22;11748;50.844;4.396;2023-08-17T10:31:38;24.60;99.90
23160;DHT22;11748;50.844;4.396;2023-08-17T10:34:04;24.60;99.90
23160;DHT22;11748;50.844;4.396;2023-08-17T10:36:33;24.80;99.90
23160;DHT22;11748;50.844;4.396;2023-08-17T10:41:49;25.10;99.90
23160;DHT22;11748;50.844;4.396;2023-08-17T10:44:17;25.10;99.90
23160;DHT22;11748;50.844;4.396;2023-08-17T10:46:43;25.30;99.90
23160;DHT22;11748;50.844;4.396;2023-08-17T10:49:26;25.30;99.90
23160;DHT22;11748;50.844;4.396;2023-08-17T10:52:06;25.40;99.90
23160;DHT22;11748;50.844;4.396;2023-08-17T10:54:38;25.30;99.90
23160;DHT22;11748;50.844;4.396;2023-08-17T11:00:17;24.70;99.90
23160;DHT22;11748;50.844;4.396;2023-08-17T11:02:58;24.90;99.90
23160;DHT22;11748;50.844;4.396;2023-08-17T11:05:46;25.10;99.90
23160;DHT22;11748;50.844;4.396;2023-08-17T11:08:29;25.40;99.90
23160;DHT22;11748;50.844;4.396;2023-08-17T11:11:12;25.40;99.90
23160;DHT22;11748;50.844;4.396;2023-08-17T11:13:42;25.50;99.90
23160;DHT22;11748;50.844;4.396;2023-08-17T11:16:11;25.60;99.90
23160;DHT22;11748;50.844;4.396;2023-08-17T11:18:37;25.60;99.90
23160;DHT22;11748;50.844;4.396;2023-08-17T11:21:07;25.50;99.90
23160;DHT22;11748;50.844;4.396;2023-08-17T11:23:35;25.30;99.90
23160;DHT22;11748;50.844;4.396;2023-08-17T11:26:01;25.10;99.90
23160;DHT22;11748;50.844;4.396;2023-08-17T11:28:32;25.20;99.90
23160;DHT22;11748;50.844;4.396;2023-08-17T11:31:03;25.20;99.90
23160;DHT22;11748;50.844;4.396;2023-08-17T11:33:30;25.20;99.90
23160;DHT22;11748;50.844;4.396;2023-08-17T11:35:57;25.10;99.90
23160;DHT22;11748;50.844;4.396;2023-08-17T11:38:23;25.10;99.90
23160;DHT22;11748;50.844;4.396;2023-08-17T11:40:49;25.10;99.90
23160;DHT22;11748;50.844;4.396;2023-08-17T11:43:16;25.20;99.90
23160;DHT22;11748;50.844;4.396;2023-08-17T11:45:42;25.30;99.90
23160;DHT22;11748;50.844;4.396;2023-08-17T11:48:08;25.20;99.90
23160;DHT22;11748;50.844;4.396;2023-08-17T11:50:35;25.20;99.90
23160;DHT22;11748;50.844;4.396;2023-08-17T11:53:00;25.10;99.90
23160;DHT22;11748;50.844;4.396;2023-08-17T11:55:26;25.00;99.90
23160;DHT22;11748;50.844;4.396;2023-08-17T11:57:52;24.80;99.90
23160;DHT22;11748;50.844;4.396;2023-08-17T12:00:21;24.80;99.90
23160;DHT22;11748;50.844;4.396;2023-08-17T12:02:51;24.70;99.90
23160;DHT22;11748;50.844;4.396;2023-08-17T12:05:24;24.60;99.90
23160;DHT22;11748;50.844;4.396;2023-08-17T12:07:55;24.60;99.90
23160;DHT22;11748;50.844;4.396;2023-08-17T12:10:21;24.60;99.90
23160;DHT22;11748;50.844;4.396;2023-08-17T12:12:50;24.60;99.90
23160;DHT22;11748;50.844;4.396;2023-08-17T12:15:16;24.60;99.90
23160;DHT22;11748;50.844;4.396;2023-08-17T12:17:46;24.60;99.90
23160;DHT22;11748;50.844;4.396;2023-08-17T12:20:17;24.60;99.90
23160;DHT22;11748;50.844;4.396;2023-08-17T12:22:43;24.60;99.90
23160;DHT22;11748;50.844;4.396;2023-08-17T12:25:09;24.60;99.90
23160;DHT22;11748;50.844;4.396;2023-08-17T12:27:35;24.50;99.90
23160;DHT22;11748;50.844;4.396;2023-08-17T12:30:02;24.50;99.90
23160;DHT22;11748;50.844;4.396;2023-08-17T12:32:27;24.60;99.90
23160;DHT22;11748;50.844;4.396;2023-08-17T12:34:53;24.60;99.90
23160;DHT22;11748;50.844;4.396;2023-08-17T12:37:20;24.70;99.90
23160;DHT22;11748;50.844;4.396;2023-08-17T12:39:47;24.80;99.90
23160;DHT22;11748;50.844;4.396;2023-08-17T12:42:13;24.90;99.90
23160;DHT22;11748;50.844;4.396;2023-08-17T12:44:43;24.90;99.90
23160;DHT22;11748;50.844;4.396;2023-08-17T12:47:10;25.00;99.90
23160;DHT22;11748;50.844;4.396;2023-08-17T12:49:36;25.10;99.90
23160;DHT22;11748;50.844;4.396;2023-08-17T12:52:02;25.10;99.90
23160;DHT22;11748;50.844;4.396;2023-08-17T12:54:28;25.30;99.90
23160;DHT22;11748;50.844;4.396;2023-08-17T12:56:53;25.30;99.90
23160;DHT22;11748;50.844;4.396;2023-08-17T12:59:19;25.20;99.90
23160;DHT22;11748;50.844;4.396;2023-08-17T13:01:45;25.00;99.90
23160;DHT22;11748;50.844;4.396;2023-08-17T13:04:10;25.00;99.90
23160;DHT22;11748;50.844;4.396;2023-08-17T13:06:36;25.30;99.90
23160;DHT22;11748;50.844;4.396;2023-08-17T13:09:02;25.50;99.90
23160;DHT22;11748;50.844;4.396;2023-08-17T13:11:27;25.50;99.90
23160;DHT22;11748;50.844;4.396;2023-08-17T13:13:53;25.40;99.90
23160;DHT22;11748;50.844;4.396;2023-08-17T13:16:19;24.80;99.90
23160;DHT22;11748;50.844;4.396;2023-08-17T13:18:44;24.80;99.90
23160;DHT22;11748;50.844;4.396;2023-08-17T13:21:10;24.90;99.90
23160;DHT22;11748;50.844;4.396;2023-08-17T13:23:41;25.00;99.90
23160;DHT22;11748;50.844;4.396;2023-08-17T13:26:07;25.20;99.90
23160;DHT22;11748;50.844;4.396;2023-08-17T13:28:32;25.30;99.90
23160;DHT22;11748;50.844;4.396;2023-08-17T13:30:59;25.30;99.90
23160;DHT22;11748;50.844;4.396;2023-08-17T13:33:25;25.30;99.90
23160;DHT22;11748;50.844;4.396;2023-08-17T13:35:50;25.30;99.90
23160;DHT22;11748;50.844;4.396;2023-08-17T13:38:16;25.20;99.90
23160;DHT22;11748;50.844;4.396;2023-08-17T13:40:42;25.10;99.90
23160;DHT22;11748;50.844;4.396;2023-08-17T13:43:08;25.20;99.90
23160;DHT22;11748;50.844;4.396;2023-08-17T13:45:40;25.30;99.90
23160;DHT22;11748;50.844;4.396;2023-08-17T13:48:07;25.40;99.90
23160;DHT22;11748;50.844;4.396;2023-08-17T13:50:36;25.60;99.90
23160;DHT22;11748;50.844;4.396;2023-08-17T13:53:02;25.60;99.90
23160;DHT22;11748;50.844;4.396;2023-08-17T13:55:28;25.80;99.90
23160;DHT22;11748;50.844;4.396;2023-08-17T13:57:54;25.70;99.90
23160;DHT22;11748;50.844;4.396;2023-08-17T14:00:24;25.70;99.90
23160;DHT22;11748;50.844;4.396;2023-08-17T14:02:49;25.50;99.90
23160;DHT22;11748;50.844;4.396;2023-08-17T14:05:16;25.40;99.90
23160;DHT22;11748;50.844;4.396;2023-08-17T14:07:41;25.30;99.90
23160;DHT22;11748;50.844;4.396;2023-08-17T14:10:07;25.20;99.90
23160;DHT22;11748;50.844;4.396;2023-08-17T14:12:33;25.10;99.90
23160;DHT22;11748;50.844;4.396;2023-08-17T14:15:00;25.10;99.90
23160;DHT22;11748;50.844;4.396;2023-08-17T14:17:27;25.10;99.90
23160;DHT22;11748;50.844;4.396;2023-08-17T14:19:52;25.10;99.90
23160;DHT22;11748;50.844;4.396;2023-08-17T14:22:18;25.00;99.90
23160;DHT22;11748;50.844;4.396;2023-08-17T14:24:45;25.00;99.90
23160;DHT22;11748;50.844;4.396;2023-08-17T14:27:12;24.80;99.90
23160;DHT22;11748;50.844;4.396;2023-08-17T14:29:38;24.80;99.90
23160;DHT22;11748;50.844;4.396;2023-08-17T14:32:04;24.80;99.90
23160;DHT22;11748;50.844;4.396;2023-08-17T14:34:30;24.80;99.90
23160;DHT22;11748;50.844;4.396;2023-08-17T14:36:56;24.80;99.90
23160;DHT22;11748;50.844;4.396;2023-08-17T14:39:22;24.80;99.90
23160;DHT22;11748;50.844;4.396;2023-08-17T14:41:47;24.70;99.90
23160;DHT22;11748;50.844;4.396;2023-08-17T14:44:13;24.60;99.90
23160;DHT22;11748;50.844;4.396;2023-08-17T14:46:39;24.60;99.90
23160;DHT22;11748;50.844;4.396;2023-08-17T14:49:05;24.60;99.90
23160;DHT22;11748;50.844;4.396;2023-08-17T14:51:37;24.50;99.90
23160;DHT22;11748;50.844;4.396;2023-08-17T14:54:04;24.40;99.90
23160;DHT22;11748;50.844;4.396;2023-08-17T14:56:30;24.40;99.90
23160;DHT22;11748;50.844;4.396;2023-08-17T14:58:56;24.30;99.90
23160;DHT22;11748;50.844;4.396;2023-08-17T15:01:21;24.40;99.90
23160;DHT22;11748;50.844;4.396;2023-08-17T15:03:47;24.50;99.90
23160;DHT22;11748;50.844;4.396;2023-08-17T15:06:13;24.70;99.90
23160;DHT22;11748;50.844;4.396;2023-08-17T15:08:38;24.80;99.90
23160;DHT22;11748;50.844;4.396;2023-08-17T15:11:04;24.80;99.90
23160;DHT22;11748;50.844;4.396;2023-08-17T15:13:30;24.90;99.90
23160;DHT22;11748;50.844;4.396;2023-08-17T15:15:55;25.00;99.90
23160;DHT22;11748;50.844;4.396;2023-08-17T15:18:21;25.00;99.90
23160;DHT22;11748;50.844;4.396;2023-08-17T15:20:47;25.10;99.90
23160;DHT22;11748;50.844;4.396;2023-08-17T15:23:13;25.20;99.90
23160;DHT22;11748;50.844;4.396;2023-08-17T15:25:39;25.20;99.90
23160;DHT22;11748;50.844;4.396;2023-08-17T15:28:05;25.30;99.90
23160;DHT22;11748;50.844;4.396;2023-08-17T15:30:31;25.30;99.90
23160;DHT22;11748;50.844;4.396;2023-08-17T15:32:56;25.30;99.90
23160;DHT22;11748;50.844;4.396;2023-08-17T15:35:22;25.30;99.90
23160;DHT22;11748;50.844;4.396;2023-08-17T15:37:48;25.30;99.90